createdAt,value
2022-08-04T00:01:34.378Z,95.50
2022-08-04T00:05:48.906Z,96.00
2022-08-04T00:09:54.264Z,96.40
2022-08-04T00:14:03.060Z,96.00
2022-08-04T00:18:08.725Z,96.10
2022-08-04T00:22:14.681Z,95.60
2022-08-04T00:26:18.011Z,95.50
2022-08-04T00:30:20.990Z,95.70
2022-08-04T00:34:25.223Z,95.50
2022-08-04T00:38:30.636Z,95.30
2022-08-04T00:42:36.423Z,95.30
2022-08-04T00:46:51.156Z,95.40
2022-08-04T00:51:00.736Z,95.90
2022-08-04T00:55:16.856Z,95.90
2022-08-04T00:59:26.801Z,96.60
2022-08-04T01:03:51.428Z,96.50
2022-08-04T01:08:00.502Z,96.50
2022-08-04T01:12:17.969Z,95.90
2022-08-04T01:16:25.737Z,96.10
2022-08-04T01:20:33.839Z,96.50
2022-08-04T01:24:53.015Z,96.50
2022-08-04T01:29:04.562Z,96.80
2022-08-04T01:33:10.692Z,96.70
2022-08-04T01:37:21.000Z,96.40
2022-08-04T01:41:32.924Z,96.60
2022-08-04T01:45:37.970Z,96.70
2022-08-04T01:49:43.196Z,97.10
2022-08-04T01:53:46.064Z,97.10
2022-08-04T01:57:50.137Z,97.50
2022-08-04T02:01:54.535Z,97.20
2022-08-04T02:06:04.405Z,96.90
2022-08-04T02:10:08.551Z,97.40
2022-08-04T02:14:37.075Z,97.60
2022-08-04T02:18:44.488Z,97.60
2022-08-04T02:22:52.948Z,96.70
2022-08-04T02:26:57.462Z,96.30
2022-08-04T02:31:04.785Z,95.90
2022-08-04T02:35:09.970Z,95.70
2022-08-04T02:39:13.796Z,95.70
2022-08-04T02:43:51.063Z,95.90
2022-08-04T02:48:30.697Z,96.70
2022-08-04T02:52:10.756Z,96.90
2022-08-04T02:56:16.625Z,96.80
2022-08-04T03:00:19.993Z,96.80
2022-08-04T03:04:46.837Z,96.40
2022-08-04T03:09:00.331Z,96.60
2022-08-04T03:13:24.143Z,97.00
2022-08-04T03:17:52.331Z,96.90
2022-08-04T03:22:02.267Z,96.70
2022-08-04T03:26:19.958Z,96.80
2022-08-04T03:30:30.391Z,96.50
2022-08-04T03:34:39.771Z,96.70
2022-08-04T03:38:57.623Z,96.90
2022-08-04T03:43:56.838Z,97.00
2022-08-04T03:47:55.503Z,97.20
2022-08-04T03:52:16.761Z,97.70
2022-08-04T03:56:36.787Z,97.50
2022-08-04T04:00:42.619Z,97.70
2022-08-04T04:04:57.699Z,97.30
2022-08-04T04:09:20.832Z,97.80
2022-08-04T04:13:29.612Z,97.60
2022-08-04T04:17:50.126Z,97.80
2022-08-04T04:22:20.200Z,97.90
2022-08-04T04:26:38.385Z,97.60
2022-08-04T04:30:45.618Z,97.70
2022-08-04T04:34:54.331Z,97.50
2022-08-04T04:39:04.448Z,97.60
2022-08-04T04:43:14.851Z,97.60
2022-08-04T04:48:01.710Z,97.50
2022-08-04T04:51:50.456Z,97.60
2022-08-04T04:55:57.094Z,97.50
2022-08-04T05:00:03.414Z,97.70
2022-08-04T05:04:24.380Z,97.60
2022-08-04T05:08:44.435Z,97.60
2022-08-04T05:14:34.553Z,97.50
2022-08-04T05:17:22.930Z,97.60
2022-08-04T05:21:33.579Z,97.90
2022-08-04T05:25:38.460Z,98.00
2022-08-04T05:29:44.134Z,98.00
2022-08-04T05:33:54.300Z,97.90
2022-08-04T05:38:01.255Z,97.90
2022-08-04T05:42:07.224Z,97.70
2022-08-04T05:46:10.831Z,98.00
2022-08-04T05:50:15.199Z,98.00
2022-08-04T05:54:19.691Z,98.00
2022-08-04T05:58:22.980Z,98.00
2022-08-04T06:02:26.760Z,98.00
2022-08-04T06:06:31.176Z,98.00
2022-08-04T06:10:35.509Z,98.10
2022-08-04T06:19:59.456Z,97.90
2022-08-04T06:23:08.763Z,98.30
2022-08-04T06:27:12.013Z,98.40
2022-08-04T06:32:27.333Z,98.30
2022-08-04T06:35:45.742Z,98.30
2022-08-04T06:39:50.630Z,98.40
2022-08-04T06:43:54.801Z,98.30
2022-08-04T06:47:57.757Z,98.50
2022-08-04T06:52:03.074Z,98.20
2022-08-04T06:56:08.635Z,98.70
2022-08-04T07:00:13.938Z,99.30
2022-08-04T07:04:16.847Z,98.70
2022-08-04T07:08:20.439Z,99.90
2022-08-04T07:12:25.841Z,99.90
2022-08-04T07:16:29.699Z,99.90
2022-08-04T07:24:41.470Z,99.90
2022-08-04T07:28:46.721Z,99.90
2022-08-04T07:32:49.817Z,99.90
2022-08-04T07:45:03.187Z,99.90
2022-08-04T07:49:07.948Z,99.90
2022-08-04T07:53:55.342Z,99.20
2022-08-04T07:57:40.487Z,99.90
2022-08-04T08:01:46.815Z,99.90
2022-08-04T08:06:16.848Z,99.90
2022-08-04T08:10:13.495Z,99.90
2022-08-04T08:26:27.558Z,98.80
2022-08-04T08:30:32.865Z,99.20
2022-08-04T08:34:36.010Z,98.90
2022-08-04T08:38:41.988Z,99.20
2022-08-04T08:44:05.206Z,96.90
2022-08-04T08:48:00.028Z,97.00
2022-08-04T08:52:05.063Z,97.80
2022-08-04T08:56:14.144Z,96.30
2022-08-04T09:00:21.787Z,96.90
2022-08-04T09:04:45.853Z,97.20
2022-08-04T09:09:00.900Z,97.40
2022-08-04T09:13:05.685Z,96.40
2022-08-04T09:17:14.714Z,96.40
2022-08-04T09:21:19.645Z,96.50
2022-08-04T09:25:25.996Z,95.30
2022-08-04T09:29:34.559Z,94.40
2022-08-04T09:33:45.284Z,94.20
2022-08-04T09:37:53.415Z,93.50
2022-08-04T09:42:02.595Z,94.70
2022-08-04T09:46:07.664Z,95.90
2022-08-04T09:50:17.535Z,94.90
2022-08-04T15:18:54.543Z,83.60
2022-08-04T15:23:14.238Z,84.20
2022-08-04T15:27:21.434Z,84.80
2022-08-04T15:32:05.739Z,84.60
2022-08-04T15:36:19.201Z,85.20
2022-08-04T15:40:44.258Z,86.30
2022-08-04T15:45:08.244Z,86.50
2022-08-04T15:49:43.089Z,85.30
2022-08-04T15:54:28.041Z,86.70
2022-08-04T16:07:30.720Z,87.50
2022-08-04T16:16:05.897Z,87.80
2022-08-04T16:20:11.647Z,87.40
2022-08-04T16:24:24.180Z,87.50
2022-08-04T16:29:03.240Z,89.60
2022-08-04T16:33:21.761Z,89.30
2022-08-04T16:37:31.437Z,89.80
2022-08-04T16:41:42.011Z,89.90
2022-08-04T16:45:50.055Z,89.10
2022-08-04T16:50:03.439Z,88.30
2022-08-04T16:54:06.930Z,88.50
2022-08-04T16:58:09.807Z,88.60
2022-08-04T17:02:13.200Z,90.00
2022-08-04T17:06:17.923Z,90.10
2022-08-04T17:10:21.032Z,89.80
2022-08-04T17:14:24.249Z,90.10
2022-08-04T17:18:28.451Z,89.70
2022-08-04T17:22:32.694Z,90.80
2022-08-04T17:26:40.219Z,90.70
2022-08-04T17:30:47.893Z,90.50
2022-08-04T17:34:55.419Z,90.40
2022-08-04T17:39:03.341Z,90.00
2022-08-04T17:47:52.936Z,91.70
2022-08-04T17:52:07.080Z,90.80
2022-08-04T17:56:31.059Z,90.50
2022-08-04T20:58:21.328Z,93.80
2022-08-04T21:02:30.728Z,93.80
2022-08-04T21:06:34.773Z,93.90
2022-08-04T21:10:37.614Z,93.80
2022-08-04T21:14:46.342Z,94.30
2022-08-04T21:18:50.764Z,95.30
2022-08-04T21:22:54.789Z,95.00
2022-08-04T21:26:57.936Z,96.70
2022-08-04T21:31:11.329Z,95.70
2022-08-04T21:35:37.121Z,95.10
2022-08-04T21:39:58.854Z,95.30
2022-08-04T21:44:02.893Z,97.50
2022-08-04T21:48:08.486Z,95.90
2022-08-04T21:52:11.311Z,98.00
2022-08-04T21:56:14.416Z,95.80
2022-08-04T22:00:18.514Z,96.30
2022-08-04T22:04:24.379Z,96.30
2022-08-04T22:08:30.288Z,95.90
2022-08-04T22:12:33.882Z,96.90
2022-08-04T22:16:38.529Z,95.70
2022-08-04T22:20:44.363Z,96.20
2022-08-04T22:24:47.716Z,96.20
2022-08-04T22:28:51.404Z,96.40
2022-08-04T22:32:54.229Z,96.30
2022-08-04T22:36:58.978Z,96.60
2022-08-04T22:41:03.733Z,95.00
2022-08-04T22:45:07.872Z,97.10
2022-08-04T22:49:11.002Z,95.40
2022-08-04T22:53:18.074Z,96.70
2022-08-04T22:57:25.187Z,96.80
2022-08-04T23:01:59.882Z,97.30
2022-08-04T23:06:04.512Z,98.90
2022-08-04T23:10:09.279Z,99.60
2022-08-04T23:14:12.220Z,98.10
2022-08-04T23:18:15.272Z,99.70
2022-08-04T23:22:18.101Z,98.80
2022-08-04T23:26:41.747Z,98.30
2022-08-04T23:30:45.287Z,99.90
2022-08-04T23:34:48.337Z,99.50
2022-08-04T23:38:51.185Z,99.90
2022-08-04T23:42:55.340Z,99.60
2022-08-04T23:46:59.194Z,99.90
2022-08-04T23:51:03.936Z,98.70
2022-08-04T23:55:19.282Z,99.90
2022-08-04T23:59:49.039Z,99.80
